Terminal Aerodrome Forecast
Issued by NWS Tampa Bay Area, FL

Home | Current Version | Previous Version | Text Only | Print | Product List | Glossary On
Versions: 1 2 3 4 5 6 7 8 9 10 11 12 13 14 15 16 17 18
000
FTUS42 KTBW 230530
TAFSRQ
TAF
KSRQ 230530Z 2306/2406 VRB04KT P6SM FEW015 BKN250
     FM231000 17005KT P6SM VCTS SCT020CB SCT050 SCT250
     FM231500 20007KT P6SM VCTS BKN035CB BKN150
     FM232100 23007KT P6SM SCT040 SCT100 BKN200
     FM240100 17004KT P6SM SCT040 BKN250=

USA.gov is the U.S. government's official web portal to all federal, state and local government web resources and services.